Home   Weather   France   Besançon   Past weeks
Flag for France

Past Weather in Besançon, Doubs, France — Yesterday and Last 2 Weeks

Currently: 45 °F. Passing clouds. (Weather station: Dole Tavaux, France). See more current weather

Past Weather in Besançon — Graph

°F

Besançon Temperature Yesterday

Maximum temperature yesterday: 48 °F (at 12:30 pm)
Minimum temperature yesterday: 41 °F (at 3:00 am)
Average temperature yesterday: 45 °F

High & Low Weather Summary for the Past Weeks

 TemperatureHumidityPressure
High50 °F (Feb 3, 1:30 pm)100% (Jan 21, 7:00 am)30.60 "Hg (Jan 21, 7:00 am)
Low21 °F (Jan 30, 2:00 am)57% (Feb 1, 3:30 pm)30.07 "Hg (Jan 27, 4:00 am)
Average37 °F83%30.35 "Hg
* Reported Jan 20 11:00 pm — Feb 4 11:00 pm, Besançon. Weather by CustomWeather, © 2023

Note: Actual official high and low records may vary slightly from our data, if they occured in-between our weather recording intervals... More about our weather records

Besançon Weather History for the Previous 24 Hours

Scroll right to see more
 ConditionsComfort  
Time TempWeatherWind HumidityBarometerVisibility
11:00 pm
Sat, Feb 4
45 °FPassing clouds.7 mph87%30.60 "HgN/A
10:30 pm45 °FPassing clouds.8 mph93%30.60 "HgN/A
10:00 pm45 °FPassing clouds.8 mph93%30.60 "HgN/A
9:30 pm45 °FClear.7 mph87%30.60 "Hg10 mi
9:00 pm46 °FPassing clouds.8 mph87%30.60 "HgN/A
8:30 pm46 °FClear.7 mph87%30.60 "Hg10 mi
8:00 pm48 °FPartly cloudy.7 mph87%30.60 "HgN/A
7:30 pm48 °FOvercast.6 mph87%30.60 "HgN/A
7:00 pm46 °FClear.6 mph93%30.60 "Hg10 mi
6:30 pm46 °FOvercast.2 mph93%30.60 "Hg6 mi
6:00 pm46 °FLight rain. Overcast.3 mph100%30.57 "HgN/A
5:00 pm48 °FPartly sunny.No wind94%30.57 "HgN/A
4:30 pm48 °FBroken clouds.2 mph87%30.57 "HgN/A
4:00 pm48 °FPartly sunny.5 mph94%30.57 "HgN/A
3:30 pm48 °FBroken clouds.3 mph94%30.57 "HgN/A
3:00 pm48 °FMostly cloudy.3 mph94%30.57 "HgN/A
2:30 pm48 °FOvercast.2 mph94%30.57 "Hg6 mi
2:00 pm48 °FOvercast.3 mph94%30.57 "HgN/A
1:00 pm48 °FOvercast.5 mph94%30.57 "HgN/A
12:30 pm48 °FLow clouds.3 mph94%30.57 "HgN/A
12:00 pm46 °FLow clouds.3 mph100%30.60 "HgN/A
11:00 am45 °FDrizzle. Fog.1 mph100%30.60 "Hg1 mi
10:30 am45 °FBroken clouds.2 mph93%30.57 "Hg4 mi
10:00 am43 °FFog.2 mph100%30.57 "Hg2 mi
9:30 am43 °FFog.3 mph100%30.57 "Hg2 mi
9:00 am43 °FFog.3 mph93%30.57 "Hg3 mi
8:30 am41 °FFog.5 mph100%30.57 "Hg3 mi
8:00 am41 °FPassing clouds.5 mph93%30.57 "Hg4 mi
7:00 am41 °FLow clouds.No wind100%30.57 "Hg4 mi
6:30 am43 °FFog.3 mph93%30.57 "Hg3 mi
6:00 am43 °FOvercast.2 mph93%30.57 "Hg6 mi
5:30 am43 °FOvercast.5 mph93%30.57 "HgN/A
5:00 am43 °FMostly cloudy.2 mph93%30.57 "HgN/A
4:30 am43 °FOvercast.2 mph93%30.57 "HgN/A
4:00 am41 °FOvercast.2 mph100%30.57 "HgN/A
3:30 am41 °FOvercast.2 mph100%30.57 "HgN/A
3:00 am41 °FOvercast.3 mph93%30.57 "HgN/A
2:30 am43 °FOvercast.2 mph87%30.57 "HgN/A
2:00 am43 °FOvercast.3 mph81%30.57 "HgN/A
12:30 am43 °FOvercast.3 mph87%30.57 "HgN/A
12:00 am43 °FMostly cloudy.No wind81%30.57 "HgN/A
Weather by CustomWeather, © 2023

See weather overview